sensor_id;sensor_type;location;lat;lon;timestamp;temperature;humidity
13998;DHT22;7074;51.508;7.018;2023-07-22T01:33:35;17.80;99.90
13998;DHT22;7074;51.508;7.018;2023-07-22T01:36:21;17.80;99.90
13998;DHT22;7074;51.508;7.018;2023-07-22T01:39:06;17.80;99.90
13998;DHT22;7074;51.508;7.018;2023-07-22T01:41:46;17.80;99.90
13998;DHT22;7074;51.508;7.018;2023-07-22T01:44:24;17.80;99.90
13998;DHT22;7074;51.508;7.018;2023-07-22T01:47:09;17.80;99.90
13998;DHT22;7074;51.508;7.018;2023-07-22T01:50:06;17.80;99.90
13998;DHT22;7074;51.508;7.018;2023-07-22T01:52:37;17.80;99.90
13998;DHT22;7074;51.508;7.018;2023-07-22T01:55:11;17.80;99.90
13998;DHT22;7074;51.508;7.018;2023-07-22T01:57:54;17.90;99.90
13998;DHT22;7074;51.508;7.018;2023-07-22T02:00:31;17.90;99.90
13998;DHT22;7074;51.508;7.018;2023-07-22T02:03:54;17.90;99.90
13998;DHT22;7074;51.508;7.018;2023-07-22T02:14:45;17.90;99.90
13998;DHT22;7074;51.508;7.018;2023-07-22T02:17:51;17.90;99.90
13998;DHT22;7074;51.508;7.018;2023-07-22T02:24:23;17.80;99.90
13998;DHT22;7074;51.508;7.018;2023-07-22T05:11:36;18.00;99.90
13998;DHT22;7074;51.508;7.018;2023-07-22T05:14:29;18.00;99.90
13998;DHT22;7074;51.508;7.018;2023-07-22T05:16:57;18.10;99.90
13998;DHT22;7074;51.508;7.018;2023-07-22T05:19:24;18.10;99.90
13998;DHT22;7074;51.508;7.018;2023-07-22T05:21:51;18.20;99.90
13998;DHT22;7074;51.508;7.018;2023-07-22T05:24:18;18.30;99.90
13998;DHT22;7074;51.508;7.018;2023-07-22T05:26:48;18.20;99.90
13998;DHT22;7074;51.508;7.018;2023-07-22T05:29:16;18.20;99.90
13998;DHT22;7074;51.508;7.018;2023-07-22T05:31:43;18.20;99.90
13998;DHT22;7074;51.508;7.018;2023-07-22T05:34:10;18.20;99.90
13998;DHT22;7074;51.508;7.018;2023-07-22T05:36:38;18.20;99.90
13998;DHT22;7074;51.508;7.018;2023-07-22T05:39:05;18.10;99.90
13998;DHT22;7074;51.508;7.018;2023-07-22T05:41:33;18.10;99.90
13998;DHT22;7074;51.508;7.018;2023-07-22T05:44:01;18.20;99.90
13998;DHT22;7074;51.508;7.018;2023-07-22T05:46:29;18.20;99.90
13998;DHT22;7074;51.508;7.018;2023-07-22T05:48:56;18.20;99.90
13998;DHT22;7074;51.508;7.018;2023-07-22T05:51:26;18.40;99.90
13998;DHT22;7074;51.508;7.018;2023-07-22T05:54:01;18.50;99.90
13998;DHT22;7074;51.508;7.018;2023-07-22T05:56:36;18.60;99.90
13998;DHT22;7074;51.508;7.018;2023-07-22T05:59:18;18.70;99.90
13998;DHT22;7074;51.508;7.018;2023-07-22T06:01:49;18.80;99.90
13998;DHT22;7074;51.508;7.018;2023-07-22T06:04:45;18.90;99.90
13998;DHT22;7074;51.508;7.018;2023-07-22T06:08:14;18.80;99.90
13998;DHT22;7074;51.508;7.018;2023-07-22T06:11:41;19.00;99.90
13998;DHT22;7074;51.508;7.018;2023-07-22T06:15:16;19.20;99.90
13998;DHT22;7074;51.508;7.018;2023-07-22T06:17:56;19.10;99.90
13998;DHT22;7074;51.508;7.018;2023-07-22T06:24:40;19.30;99.90
13998;DHT22;7074;51.508;7.018;2023-07-22T06:27:47;19.40;99.90
13998;DHT22;7074;51.508;7.018;2023-07-22T06:30:41;19.60;99.90
13998;DHT22;7074;51.508;7.018;2023-07-22T06:37:25;19.70;99.90
13998;DHT22;7074;51.508;7.018;2023-07-22T06:44:19;20.10;99.90
13998;DHT22;7074;51.508;7.018;2023-07-22T06:48:00;20.20;99.90
13998;DHT22;7074;51.508;7.018;2023-07-22T06:50:33;20.30;99.90
13998;DHT22;7074;51.508;7.018;2023-07-22T06:53:01;20.30;99.90
13998;DHT22;7074;51.508;7.018;2023-07-22T06:55:28;20.20;99.90
13998;DHT22;7074;51.508;7.018;2023-07-22T06:57:55;20.30;99.90
13998;DHT22;7074;51.508;7.018;2023-07-22T07:00:23;20.40;99.90
13998;DHT22;7074;51.508;7.018;2023-07-22T07:02:50;20.50;99.90
13998;DHT22;7074;51.508;7.018;2023-07-22T07:05:18;20.60;99.90
13998;DHT22;7074;51.508;7.018;2023-07-22T07:07:49;20.50;99.90
13998;DHT22;7074;51.508;7.018;2023-07-22T07:10:16;20.50;99.90
13998;DHT22;7074;51.508;7.018;2023-07-22T07:12:43;20.60;99.90
13998;DHT22;7074;51.508;7.018;2023-07-22T07:15:11;20.80;99.90
13998;DHT22;7074;51.508;7.018;2023-07-22T07:17:38;20.80;99.90
13998;DHT22;7074;51.508;7.018;2023-07-22T07:20:06;21.00;99.90
13998;DHT22;7074;51.508;7.018;2023-07-22T07:22:34;21.10;99.90
13998;DHT22;7074;51.508;7.018;2023-07-22T07:25:02;21.10;99.90
13998;DHT22;7074;51.508;7.018;2023-07-22T07:27:29;21.20;99.90
13998;DHT22;7074;51.508;7.018;2023-07-22T07:29:56;21.40;99.90
13998;DHT22;7074;51.508;7.018;2023-07-22T07:32:23;21.40;99.90
13998;DHT22;7074;51.508;7.018;2023-07-22T07:34:50;21.50;99.70
13998;DHT22;7074;51.508;7.018;2023-07-22T07:37:17;21.50;99.50
13998;DHT22;7074;51.508;7.018;2023-07-22T07:39:46;21.70;99.60
13998;DHT22;7074;51.508;7.018;2023-07-22T07:42:13;21.80;99.60
13998;DHT22;7074;51.508;7.018;2023-07-22T07:44:40;21.70;99.10
13998;DHT22;7074;51.508;7.018;2023-07-22T07:47:07;21.80;99.00
13998;DHT22;7074;51.508;7.018;2023-07-22T07:49:34;21.90;98.40
13998;DHT22;7074;51.508;7.018;2023-07-22T07:52:01;21.90;98.20
13998;DHT22;7074;51.508;7.018;2023-07-22T07:54:28;22.00;98.00
13998;DHT22;7074;51.508;7.018;2023-07-22T07:56:57;22.00;97.80
13998;DHT22;7074;51.508;7.018;2023-07-22T07:59:24;22.00;98.10
13998;DHT22;7074;51.508;7.018;2023-07-22T08:01:51;22.10;97.60
13998;DHT22;7074;51.508;7.018;2023-07-22T08:04:18;22.20;98.00
13998;DHT22;7074;51.508;7.018;2023-07-22T08:06:46;22.40;97.30
13998;DHT22;7074;51.508;7.018;2023-07-22T08:09:13;22.40;97.00
13998;DHT22;7074;51.508;7.018;2023-07-22T08:11:44;22.40;96.80
13998;DHT22;7074;51.508;7.018;2023-07-22T08:14:13;22.40;96.90
13998;DHT22;7074;51.508;7.018;2023-07-22T08:16:40;22.40;96.70
13998;DHT22;7074;51.508;7.018;2023-07-22T08:19:07;22.50;96.90
13998;DHT22;7074;51.508;7.018;2023-07-22T08:21:34;22.60;96.50
13998;DHT22;7074;51.508;7.018;2023-07-22T08:24:02;22.50;96.20
13998;DHT22;7074;51.508;7.018;2023-07-22T08:26:29;22.40;96.20
13998;DHT22;7074;51.508;7.018;2023-07-22T08:28:56;22.50;96.20
13998;DHT22;7074;51.508;7.018;2023-07-22T08:31:24;22.50;95.70
13998;DHT22;7074;51.508;7.018;2023-07-22T08:33:51;22.60;95.50
13998;DHT22;7074;51.508;7.018;2023-07-22T08:36:19;22.50;95.20
13998;DHT22;7074;51.508;7.018;2023-07-22T08:38:46;22.60;95.60
13998;DHT22;7074;51.508;7.018;2023-07-22T08:41:14;22.70;96.00
13998;DHT22;7074;51.508;7.018;2023-07-22T08:43:45;22.90;95.10
13998;DHT22;7074;51.508;7.018;2023-07-22T08:46:12;22.90;94.70
13998;DHT22;7074;51.508;7.018;2023-07-22T08:48:42;22.80;94.10
13998;DHT22;7074;51.508;7.018;2023-07-22T08:51:14;22.70;93.90
13998;DHT22;7074;51.508;7.018;2023-07-22T08:53:43;22.80;94.20
13998;DHT22;7074;51.508;7.018;2023-07-22T08:56:11;23.00;94.10
13998;DHT22;7074;51.508;7.018;2023-07-22T08:58:39;23.00;93.40
13998;DHT22;7074;51.508;7.018;2023-07-22T09:01:09;23.00;93.00
13998;DHT22;7074;51.508;7.018;2023-07-22T09:03:36;22.90;93.00
13998;DHT22;7074;51.508;7.018;2023-07-22T09:06:06;22.80;93.40
13998;DHT22;7074;51.508;7.018;2023-07-22T09:08:33;22.80;93.30
13998;DHT22;7074;51.508;7.018;2023-07-22T09:11:01;22.90;93.60
13998;DHT22;7074;51.508;7.018;2023-07-22T09:13:29;22.90;93.80
13998;DHT22;7074;51.508;7.018;2023-07-22T09:15:57;22.90;93.90
13998;DHT22;7074;51.508;7.018;2023-07-22T09:18:24;22.80;93.40
13998;DHT22;7074;51.508;7.018;2023-07-22T09:20:52;22.90;93.90
13998;DHT22;7074;51.508;7.018;2023-07-22T09:23:33;22.90;94.00
13998;DHT22;7074;51.508;7.018;2023-07-22T09:26:11;22.90;94.80
13998;DHT22;7074;51.508;7.018;2023-07-22T09:28:49;22.80;94.50
13998;DHT22;7074;51.508;7.018;2023-07-22T09:31:16;22.90;94.10
13998;DHT22;7074;51.508;7.018;2023-07-22T09:33:43;22.90;94.40
13998;DHT22;7074;51.508;7.018;2023-07-22T09:36:10;23.10;94.80
13998;DHT22;7074;51.508;7.018;2023-07-22T09:38:39;23.00;94.50
13998;DHT22;7074;51.508;7.018;2023-07-22T09:41:06;23.10;93.90
13998;DHT22;7074;51.508;7.018;2023-07-22T09:43:37;23.30;93.80
13998;DHT22;7074;51.508;7.018;2023-07-22T09:46:09;23.70;93.50
13998;DHT22;7074;51.508;7.018;2023-07-22T09:48:40;23.80;93.30
13998;DHT22;7074;51.508;7.018;2023-07-22T09:51:12;24.00;92.60
13998;DHT22;7074;51.508;7.018;2023-07-22T09:53:46;24.20;91.70
13998;DHT22;7074;51.508;7.018;2023-07-22T09:56:13;24.10;92.00
13998;DHT22;7074;51.508;7.018;2023-07-22T09:58:41;24.20;91.60
13998;DHT22;7074;51.508;7.018;2023-07-22T10:01:12;24.30;91.20
13998;DHT22;7074;51.508;7.018;2023-07-22T10:03:43;24.30;90.90
13998;DHT22;7074;51.508;7.018;2023-07-22T10:06:12;24.20;91.10
13998;DHT22;7074;51.508;7.018;2023-07-22T10:08:45;24.20;91.30
13998;DHT22;7074;51.508;7.018;2023-07-22T10:11:14;23.60;90.60
13998;DHT22;7074;51.508;7.018;2023-07-22T10:13:42;23.60;90.20
13998;DHT22;7074;51.508;7.018;2023-07-22T10:16:09;23.50;91.10
13998;DHT22;7074;51.508;7.018;2023-07-22T10:18:37;23.70;91.80
13998;DHT22;7074;51.508;7.018;2023-07-22T10:21:07;23.70;91.50
13998;DHT22;7074;51.508;7.018;2023-07-22T10:23:35;23.60;91.50
13998;DHT22;7074;51.508;7.018;2023-07-22T14:18:23;26.90;56.50
13998;DHT22;7074;51.508;7.018;2023-07-22T14:21:03;27.00;56.50
13998;DHT22;7074;51.508;7.018;2023-07-22T14:23:30;27.20;56.70
13998;DHT22;7074;51.508;7.018;2023-07-22T14:25:58;27.00;55.70
13998;DHT22;7074;51.508;7.018;2023-07-22T14:28:30;26.80;55.10
13998;DHT22;7074;51.508;7.018;2023-07-22T14:30:59;27.00;55.20
13998;DHT22;7074;51.508;7.018;2023-07-22T14:33:44;27.00;55.00
13998;DHT22;7074;51.508;7.018;2023-07-22T14:36:18;26.70;55.70
13998;DHT22;7074;51.508;7.018;2023-07-22T14:39:05;27.00;54.70
13998;DHT22;7074;51.508;7.018;2023-07-22T14:41:49;27.20;55.40
13998;DHT22;7074;51.508;7.018;2023-07-22T14:44:24;27.30;54.80
13998;DHT22;7074;51.508;7.018;2023-07-22T14:47:15;27.30;54.10
13998;DHT22;7074;51.508;7.018;2023-07-22T14:49:49;27.40;54.90
13998;DHT22;7074;51.508;7.018;2023-07-22T14:52:22;27.50;54.20
13998;DHT22;7074;51.508;7.018;2023-07-22T14:54:52;27.40;54.20
13998;DHT22;7074;51.508;7.018;2023-07-22T14:57:41;27.30;52.70
13998;DHT22;7074;51.508;7.018;2023-07-22T15:00:19;27.00;53.90
13998;DHT22;7074;51.508;7.018;2023-07-22T15:03:07;27.00;53.10
13998;DHT22;7074;51.508;7.018;2023-07-22T15:05:46;27.00;54.50
13998;DHT22;7074;51.508;7.018;2023-07-22T15:08:23;26.90;54.90
13998;DHT22;7074;51.508;7.018;2023-07-22T15:10:56;26.80;54.00
13998;DHT22;7074;51.508;7.018;2023-07-22T15:13:23;26.60;54.60
13998;DHT22;7074;51.508;7.018;2023-07-22T15:16:16;26.30;54.20
13998;DHT22;7074;51.508;7.018;2023-07-22T15:18:59;26.30;55.10
13998;DHT22;7074;51.508;7.018;2023-07-22T15:21:37;26.50;54.00
13998;DHT22;7074;51.508;7.018;2023-07-22T15:24:18;26.60;54.40
13998;DHT22;7074;51.508;7.018;2023-07-22T15:26:57;26.50;55.10
13998;DHT22;7074;51.508;7.018;2023-07-22T15:30:00;26.50;54.40
13998;DHT22;7074;51.508;7.018;2023-07-22T15:32:40;26.40;55.00
13998;DHT22;7074;51.508;7.018;2023-07-22T15:35:26;26.50;55.60
13998;DHT22;7074;51.508;7.018;2023-07-22T15:38:07;26.70;54.40
13998;DHT22;7074;51.508;7.018;2023-07-22T15:40:38;26.70;55.40
13998;DHT22;7074;51.508;7.018;2023-07-22T15:43:06;26.70;55.80
13998;DHT22;7074;51.508;7.018;2023-07-22T15:45:34;26.60;55.80
13998;DHT22;7074;51.508;7.018;2023-07-22T15:48:05;26.70;56.00
13998;DHT22;7074;51.508;7.018;2023-07-22T15:50:41;26.70;55.30
13998;DHT22;7074;51.508;7.018;2023-07-22T15:53:18;26.90;55.40
13998;DHT22;7074;51.508;7.018;2023-07-22T15:55:46;26.60;54.80
13998;DHT22;7074;51.508;7.018;2023-07-22T15:58:14;26.40;55.50
13998;DHT22;7074;51.508;7.018;2023-07-22T16:00:45;26.40;55.60
13998;DHT22;7074;51.508;7.018;2023-07-22T16:03:13;26.40;55.20
13998;DHT22;7074;51.508;7.018;2023-07-22T16:05:42;26.40;54.90
13998;DHT22;7074;51.508;7.018;2023-07-22T16:08:10;26.40;54.50
13998;DHT22;7074;51.508;7.018;2023-07-22T16:10:39;26.30;54.90
13998;DHT22;7074;51.508;7.018;2023-07-22T16:13:08;26.10;55.40
13998;DHT22;7074;51.508;7.018;2023-07-22T16:15:36;26.00;56.10
13998;DHT22;7074;51.508;7.018;2023-07-22T16:18:04;26.10;55.60
13998;DHT22;7074;51.508;7.018;2023-07-22T16:20:31;26.10;55.00
13998;DHT22;7074;51.508;7.018;2023-07-22T16:22:58;26.10;54.70
13998;DHT22;7074;51.508;7.018;2023-07-22T16:25:25;25.90;54.70
13998;DHT22;7074;51.508;7.018;2023-07-22T16:27:55;25.70;55.20
13998;DHT22;7074;51.508;7.018;2023-07-22T16:30:29;25.80;55.30
13998;DHT22;7074;51.508;7.018;2023-07-22T16:33:07;25.80;55.40
13998;DHT22;7074;51.508;7.018;2023-07-22T16:35:40;25.90;56.10
13998;DHT22;7074;51.508;7.018;2023-07-22T16:38:08;25.90;55.60
13998;DHT22;7074;51.508;7.018;2023-07-22T16:40:37;25.70;55.50
13998;DHT22;7074;51.508;7.018;2023-07-22T16:43:06;25.60;55.80
13998;DHT22;7074;51.508;7.018;2023-07-22T16:45:34;25.60;56.10
13998;DHT22;7074;51.508;7.018;2023-07-22T16:48:01;25.40;56.50
13998;DHT22;7074;51.508;7.018;2023-07-22T16:50:29;25.50;56.90
13998;DHT22;7074;51.508;7.018;2023-07-22T16:52:57;25.60;56.30
13998;DHT22;7074;51.508;7.018;2023-07-22T16:55:37;25.70;56.50
13998;DHT22;7074;51.508;7.018;2023-07-22T16:58:06;25.60;55.90
13998;DHT22;7074;51.508;7.018;2023-07-22T17:00:33;25.60;56.30
13998;DHT22;7074;51.508;7.018;2023-07-22T17:03:01;25.60;56.80
13998;DHT22;7074;51.508;7.018;2023-07-22T17:05:28;25.60;56.30
13998;DHT22;7074;51.508;7.018;2023-07-22T17:07:56;25.50;56.30
13998;DHT22;7074;51.508;7.018;2023-07-22T17:10:26;25.50;57.00
13998;DHT22;7074;51.508;7.018;2023-07-22T17:12:54;25.50;56.70
13998;DHT22;7074;51.508;7.018;2023-07-22T17:15:23;25.50;56.40
13998;DHT22;7074;51.508;7.018;2023-07-22T17:17:50;25.30;56.20
13998;DHT22;7074;51.508;7.018;2023-07-22T17:20:18;25.20;57.10
13998;DHT22;7074;51.508;7.018;2023-07-22T17:22:46;25.20;57.20
13998;DHT22;7074;51.508;7.018;2023-07-22T17:25:13;25.10;57.60
13998;DHT22;7074;51.508;7.018;2023-07-22T17:27:41;25.10;57.60
13998;DHT22;7074;51.508;7.018;2023-07-22T17:30:09;25.20;57.60
13998;DHT22;7074;51.508;7.018;2023-07-22T17:32:38;25.10;57.90
13998;DHT22;7074;51.508;7.018;2023-07-22T17:35:05;25.00;57.80
13998;DHT22;7074;51.508;7.018;2023-07-22T17:37:33;25.00;57.90
13998;DHT22;7074;51.508;7.018;2023-07-22T17:40:00;25.00;58.10
13998;DHT22;7074;51.508;7.018;2023-07-22T17:42:28;24.90;58.80
13998;DHT22;7074;51.508;7.018;2023-07-22T17:44:55;24.60;58.90
13998;DHT22;7074;51.508;7.018;2023-07-22T17:47:23;24.60;59.70
13998;DHT22;7074;51.508;7.018;2023-07-22T17:50:11;24.60;59.50
13998;DHT22;7074;51.508;7.018;2023-07-22T17:52:53;24.60;59.20
13998;DHT22;7074;51.508;7.018;2023-07-22T17:55:34;24.40;59.60
13998;DHT22;7074;51.508;7.018;2023-07-22T17:58:04;24.20;60.00
13998;DHT22;7074;51.508;7.018;2023-07-22T18:00:38;24.20;60.50
13998;DHT22;7074;51.508;7.018;2023-07-22T18:03:09;24.00;60.70
13998;DHT22;7074;51.508;7.018;2023-07-22T18:05:52;24.10;60.60
13998;DHT22;7074;51.508;7.018;2023-07-22T18:08:43;24.00;60.40
13998;DHT22;7074;51.508;7.018;2023-07-22T18:11:23;23.90;61.00
13998;DHT22;7074;51.508;7.018;2023-07-22T18:13:51;24.00;60.10
13998;DHT22;7074;51.508;7.018;2023-07-22T18:16:43;24.00;60.50
13998;DHT22;7074;51.508;7.018;2023-07-22T18:19:24;24.00;60.30
13998;DHT22;7074;51.508;7.018;2023-07-22T18:22:23;23.80;60.20
13998;DHT22;7074;51.508;7.018;2023-07-22T18:24:55;23.80;60.70
13998;DHT22;7074;51.508;7.018;2023-07-22T18:27:50;23.80;60.50
13998;DHT22;7074;51.508;7.018;2023-07-22T18:30:26;23.80;60.50
13998;DHT22;7074;51.508;7.018;2023-07-22T18:32:57;23.80;60.00
13998;DHT22;7074;51.508;7.018;2023-07-22T18:35:26;23.80;59.70
13998;DHT22;7074;51.508;7.018;2023-07-22T18:37:55;23.80;59.60
13998;DHT22;7074;51.508;7.018;2023-07-22T18:40:26;23.70;59.60
13998;DHT22;7074;51.508;7.018;2023-07-22T18:42:54;23.70;60.00
13998;DHT22;7074;51.508;7.018;2023-07-22T18:45:21;23.60;59.50
13998;DHT22;7074;51.508;7.018;2023-07-22T18:47:52;23.60;59.80
13998;DHT22;7074;51.508;7.018;2023-07-22T18:50:19;23.60;59.90
13998;DHT22;7074;51.508;7.018;2023-07-22T18:52:47;23.60;60.10
13998;DHT22;7074;51.508;7.018;2023-07-22T18:55:17;23.60;60.10
13998;DHT22;7074;51.508;7.018;2023-07-22T18:57:46;23.50;60.30
13998;DHT22;7074;51.508;7.018;2023-07-22T19:00:14;23.50;60.80
13998;DHT22;7074;51.508;7.018;2023-07-22T19:02:41;23.50;61.00
13998;DHT22;7074;51.508;7.018;2023-07-22T19:05:09;23.30;60.50
13998;DHT22;7074;51.508;7.018;2023-07-22T19:07:36;23.30;60.80
13998;DHT22;7074;51.508;7.018;2023-07-22T19:10:10;23.30;61.30
13998;DHT22;7074;51.508;7.018;2023-07-22T19:12:38;23.30;61.40
13998;DHT22;7074;51.508;7.018;2023-07-22T19:15:07;23.30;60.80
13998;DHT22;7074;51.508;7.018;2023-07-22T19:17:34;23.30;61.40
13998;DHT22;7074;51.508;7.018;2023-07-22T19:20:01;23.20;61.60
13998;DHT22;7074;51.508;7.018;2023-07-22T19:22:29;23.20;61.80
13998;DHT22;7074;51.508;7.018;2023-07-22T19:24:56;23.20;62.40
13998;DHT22;7074;51.508;7.018;2023-07-22T19:27:24;23.20;62.70
13998;DHT22;7074;51.508;7.018;2023-07-22T19:29:53;23.20;62.90
13998;DHT22;7074;51.508;7.018;2023-07-22T19:32:20;23.30;63.00
13998;DHT22;7074;51.508;7.018;2023-07-22T19:34:48;23.30;63.40
13998;DHT22;7074;51.508;7.018;2023-07-22T19:37:16;23.30;63.40
13998;DHT22;7074;51.508;7.018;2023-07-22T19:39:48;23.20;64.00
13998;DHT22;7074;51.508;7.018;2023-07-22T19:42:16;23.20;64.30
13998;DHT22;7074;51.508;7.018;2023-07-22T19:44:43;23.20;64.20
13998;DHT22;7074;51.508;7.018;2023-07-22T19:47:12;23.20;64.80
13998;DHT22;7074;51.508;7.018;2023-07-22T19:49:39;23.10;66.00
13998;DHT22;7074;51.508;7.018;2023-07-22T19:52:08;23.10;66.30
13998;DHT22;7074;51.508;7.018;2023-07-22T19:54:36;23.00;66.70
13998;DHT22;7074;51.508;7.018;2023-07-22T19:57:04;22.90;67.10
13998;DHT22;7074;51.508;7.018;2023-07-22T19:59:31;22.90;67.20
13998;DHT22;7074;51.508;7.018;2023-07-22T20:01:58;22.90;68.10
13998;DHT22;7074;51.508;7.018;2023-07-22T20:04:27;22.80;68.70
13998;DHT22;7074;51.508;7.018;2023-07-22T20:06:54;22.80;69.80
13998;DHT22;7074;51.508;7.018;2023-07-22T20:09:22;22.80;71.40
13998;DHT22;7074;51.508;7.018;2023-07-22T20:11:49;22.70;73.20
13998;DHT22;7074;51.508;7.018;2023-07-22T20:14:17;22.70;74.10
13998;DHT22;7074;51.508;7.018;2023-07-22T20:16:44;22.70;76.10
13998;DHT22;7074;51.508;7.018;2023-07-22T20:19:12;22.70;78.50
13998;DHT22;7074;51.508;7.018;2023-07-22T20:21:41;22.60;79.50
13998;DHT22;7074;51.508;7.018;2023-07-22T20:24:08;22.60;81.70
13998;DHT22;7074;51.508;7.018;2023-07-22T20:26:36;22.50;85.00
13998;DHT22;7074;51.508;7.018;2023-07-22T20:29:03;22.40;86.40
13998;DHT22;7074;51.508;7.018;2023-07-22T20:31:31;22.40;88.70
13998;DHT22;7074;51.508;7.018;2023-07-22T20:33:58;22.30;90.70
13998;DHT22;7074;51.508;7.018;2023-07-22T20:36:27;22.30;91.40
13998;DHT22;7074;51.508;7.018;2023-07-22T20:38:58;22.10;92.10
13998;DHT22;7074;51.508;7.018;2023-07-22T20:41:25;22.10;93.60
13998;DHT22;7074;51.508;7.018;2023-07-22T20:43:53;22.10;95.50
13998;DHT22;7074;51.508;7.018;2023-07-22T20:46:20;22.10;96.60
13998;DHT22;7074;51.508;7.018;2023-07-22T20:48:47;22.10;95.70
13998;DHT22;7074;51.508;7.018;2023-07-22T20:51:15;22.10;98.00
13998;DHT22;7074;51.508;7.018;2023-07-22T20:53:45;22.20;99.00
13998;DHT22;7074;51.508;7.018;2023-07-22T20:56:14;22.20;99.50
13998;DHT22;7074;51.508;7.018;2023-07-22T20:58:43;22.20;99.90
13998;DHT22;7074;51.508;7.018;2023-07-22T21:01:10;22.10;99.90
13998;DHT22;7074;51.508;7.018;2023-07-22T21:03:38;22.00;99.90
13998;DHT22;7074;51.508;7.018;2023-07-22T21:06:05;21.70;99.90
13998;DHT22;7074;51.508;7.018;2023-07-22T21:08:33;21.40;99.90
13998;DHT22;7074;51.508;7.018;2023-07-22T21:11:01;21.40;99.90
13998;DHT22;7074;51.508;7.018;2023-07-22T21:13:30;21.20;99.90
13998;DHT22;7074;51.508;7.018;2023-07-22T21:15:57;21.00;99.90
13998;DHT22;7074;51.508;7.018;2023-07-22T21:18:24;21.10;99.90
13998;DHT22;7074;51.508;7.018;2023-07-22T21:20:52;21.10;99.90
13998;DHT22;7074;51.508;7.018;2023-07-22T21:23:19;21.20;99.90
13998;DHT22;7074;51.508;7.018;2023-07-22T21:25:46;21.20;99.90
13998;DHT22;7074;51.508;7.018;2023-07-22T21:28:13;21.10;99.90
13998;DHT22;7074;51.508;7.018;2023-07-22T21:30:42;21.20;99.90
13998;DHT22;7074;51.508;7.018;2023-07-22T21:33:09;21.20;99.90
13998;DHT22;7074;51.508;7.018;2023-07-22T21:35:36;21.00;99.90
13998;DHT22;7074;51.508;7.018;2023-07-22T21:38:04;20.90;99.90
13998;DHT22;7074;51.508;7.018;2023-07-22T21:40:31;20.70;99.90
13998;DHT22;7074;51.508;7.018;2023-07-22T21:42:58;20.80;99.90
13998;DHT22;7074;51.508;7.018;2023-07-22T21:45:31;20.80;99.90
13998;DHT22;7074;51.508;7.018;2023-07-22T21:48:00;20.90;99.90
13998;DHT22;7074;51.508;7.018;2023-07-22T21:50:27;20.90;99.90
13998;DHT22;7074;51.508;7.018;2023-07-22T21:52:55;20.90;99.90
13998;DHT22;7074;51.508;7.018;2023-07-22T21:55:22;20.90;99.90
13998;DHT22;7074;51.508;7.018;2023-07-22T21:57:49;20.90;99.90
13998;DHT22;7074;51.508;7.018;2023-07-22T22:00:16;20.90;99.90
13998;DHT22;7074;51.508;7.018;2023-07-22T22:02:43;20.80;99.90
13998;DHT22;7074;51.508;7.018;2023-07-22T22:05:12;20.90;99.90
13998;DHT22;7074;51.508;7.018;2023-07-22T22:07:39;20.80;99.90
13998;DHT22;7074;51.508;7.018;2023-07-22T22:10:07;20.80;99.90
13998;DHT22;7074;51.508;7.018;2023-07-22T22:12:35;20.90;99.90
13998;DHT22;7074;51.508;7.018;2023-07-22T22:15:03;20.80;99.90
13998;DHT22;7074;51.508;7.018;2023-07-22T22:17:31;20.70;99.90
13998;DHT22;7074;51.508;7.018;2023-07-22T22:19:58;20.80;99.90
13998;DHT22;7074;51.508;7.018;2023-07-22T22:22:27;20.70;99.90
13998;DHT22;7074;51.508;7.018;2023-07-22T22:24:54;20.70;99.90
13998;DHT22;7074;51.508;7.018;2023-07-22T22:27:22;20.70;99.90
13998;DHT22;7074;51.508;7.018;2023-07-22T22:29:49;20.70;99.90
13998;DHT22;7074;51.508;7.018;2023-07-22T22:32:17;20.70;99.90
13998;DHT22;7074;51.508;7.018;2023-07-22T22:34:44;20.70;99.90
13998;DHT22;7074;51.508;7.018;2023-07-22T22:37:11;20.70;99.90
13998;DHT22;7074;51.508;7.018;2023-07-22T22:39:40;20.70;99.90
13998;DHT22;7074;51.508;7.018;2023-07-22T22:42:08;20.70;99.90
13998;DHT22;7074;51.508;7.018;2023-07-22T22:44:39;20.60;99.90
13998;DHT22;7074;51.508;7.018;2023-07-22T22:47:06;20.60;99.90
13998;DHT22;7074;51.508;7.018;2023-07-22T22:49:34;20.50;99.90
13998;DHT22;7074;51.508;7.018;2023-07-22T22:52:02;20.50;99.90
13998;DHT22;7074;51.508;7.018;2023-07-22T22:54:35;20.40;99.90
13998;DHT22;7074;51.508;7.018;2023-07-22T22:57:07;20.40;99.90
13998;DHT22;7074;51.508;7.018;2023-07-22T22:59:42;20.30;99.90
13998;DHT22;7074;51.508;7.018;2023-07-22T23:02:10;20.20;99.90
13998;DHT22;7074;51.508;7.018;2023-07-22T23:04:41;20.20;99.90
13998;DHT22;7074;51.508;7.018;2023-07-22T23:08:01;20.20;99.90
13998;DHT22;7074;51.508;7.018;2023-07-22T23:10:34;20.30;99.90
13998;DHT22;7074;51.508;7.018;2023-07-22T23:13:19;20.30;99.90
13998;DHT22;7074;51.508;7.018;2023-07-22T23:15:53;20.30;99.90
13998;DHT22;7074;51.508;7.018;2023-07-22T23:18:28;20.30;99.90
13998;DHT22;7074;51.508;7.018;2023-07-22T23:20:58;20.20;99.90
13998;DHT22;7074;51.508;7.018;2023-07-22T23:23:37;20.20;99.90
13998;DHT22;7074;51.508;7.018;2023-07-22T23:26:10;20.00;99.90
13998;DHT22;7074;51.508;7.018;2023-07-22T23:28:49;20.10;99.90
13998;DHT22;7074;51.508;7.018;2023-07-22T23:31:20;20.20;99.90
13998;DHT22;7074;51.508;7.018;2023-07-22T23:33:47;20.20;99.90
13998;DHT22;7074;51.508;7.018;2023-07-22T23:36:20;20.20;99.90
13998;DHT22;7074;51.508;7.018;2023-07-22T23:38:52;20.10;99.90
13998;DHT22;7074;51.508;7.018;2023-07-22T23:41:28;20.00;99.90
13998;DHT22;7074;51.508;7.018;2023-07-22T23:44:16;19.90;99.90
13998;DHT22;7074;51.508;7.018;2023-07-22T23:46:46;19.90;99.90
13998;DHT22;7074;51.508;7.018;2023-07-22T23:50:27;20.00;99.90
13998;DHT22;7074;51.508;7.018;2023-07-22T23:53:27;20.00;99.90
13998;DHT22;7074;51.508;7.018;2023-07-22T23:56:01;19.90;99.90
13998;DHT22;7074;51.508;7.018;2023-07-22T23:58:31;20.00;99.90
